Terminal Aerodrome Forecast
Issued by NWS

Current Version | Previous Version | Text Only | Print | Product List | Glossary On
Versions: 1 2 3 4 5 6 7 8 9 10 11 12
000
FTUS46 KMFR 020543
TAFLMT
TAF
KLMT 020543Z 0206/0306 30007KT P6SM SCT200
     FM020800 25005KT P6SM SCT200
     FM021900 25010KT P6SM FEW050 BKN200
     FM022100 27015G25KT P6SM SCT060 BKN200
     FM030300 30012KT P6SM BKN060 BKN120=

USA.gov is the U.S. government's official web portal to all federal, state and local government web resources and services.